createdAt,value
2019-06-15T00:00:42.688Z,1001.86
2019-06-15T00:01:42.700Z,1001.77
2019-06-15T00:02:42.653Z,1001.75
2019-06-15T00:03:42.643Z,1001.68
2019-06-15T00:04:42.621Z,1001.68
2019-06-15T00:05:42.609Z,1001.64
2019-06-15T00:06:42.606Z,1001.60
2019-06-15T00:07:42.577Z,1001.63
2019-06-15T00:08:42.562Z,1001.58
2019-06-15T00:09:42.547Z,1001.58
2019-06-15T00:10:42.537Z,1001.57
2019-06-15T00:11:42.547Z,1001.60
2019-06-15T00:12:42.500Z,1001.58
2019-06-15T00:13:42.484Z,1001.57
2019-06-15T00:14:42.477Z,1001.58
2019-06-15T00:15:42.463Z,1001.61
2019-06-15T00:16:42.452Z,1001.63
2019-06-15T00:17:42.423Z,1001.63
2019-06-15T00:18:42.406Z,1001.68
2019-06-15T00:19:42.398Z,1001.63
2019-06-15T00:20:42.379Z,1001.67
2019-06-15T00:21:42.378Z,1001.66
2019-06-15T00:22:42.345Z,1001.63
2019-06-15T00:23:42.331Z,1001.64
2019-06-15T00:24:42.323Z,1001.60
2019-06-15T00:25:42.320Z,1001.54
2019-06-15T00:26:42.286Z,1001.61
2019-06-15T00:27:42.270Z,1001.56
2019-06-15T00:28:42.258Z,1001.55
2019-06-15T00:29:42.238Z,1001.50
2019-06-15T00:30:42.223Z,1001.52
2019-06-15T00:31:42.219Z,1001.45
2019-06-15T00:32:42.202Z,1001.46
2019-06-15T00:33:42.177Z,1001.42
2019-06-15T00:34:42.159Z,1001.42
2019-06-15T00:35:42.160Z,1001.41
2019-06-15T00:36:42.132Z,1001.42
2019-06-15T00:37:42.115Z,1001.44
2019-06-15T00:38:42.102Z,1001.40
2019-06-15T00:39:42.085Z,1001.38
2019-06-15T00:40:42.084Z,1001.35
2019-06-15T00:41:42.052Z,1001.32
2019-06-15T00:42:42.040Z,1001.29
2019-06-15T00:43:42.025Z,1001.22
2019-06-15T00:44:42.007Z,1001.22
2019-06-15T00:45:42.007Z,1001.24
2019-06-15T00:46:41.982Z,1001.24
2019-06-15T00:47:41.961Z,1001.26
2019-06-15T00:48:41.943Z,1001.20
2019-06-15T00:49:41.931Z,1001.22
2019-06-15T00:50:41.938Z,1001.20
2019-06-15T00:51:41.901Z,1001.19
2019-06-15T00:52:41.888Z,1001.18
2019-06-15T00:53:41.868Z,1001.22
2019-06-15T00:54:49.931Z,1001.17
2019-06-15T00:55:41.843Z,1001.18
2019-06-15T00:56:41.835Z,1001.15
2019-06-15T00:57:41.812Z,1001.15
2019-06-15T00:58:41.792Z,1001.16
2019-06-15T00:59:41.776Z,1001.11
2019-06-15T01:00:41.760Z,1001.13
2019-06-15T01:01:41.762Z,1001.15
2019-06-15T01:02:41.729Z,1001.12
2019-06-15T01:03:41.712Z,1001.12
2019-06-15T01:04:41.695Z,1001.09
2019-06-15T01:05:41.716Z,1001.02
2019-06-15T01:06:41.683Z,1000.99
2019-06-15T01:07:41.652Z,1000.93
2019-06-15T01:08:41.636Z,1000.90
2019-06-15T01:09:41.623Z,1000.86
2019-06-15T01:10:41.605Z,1000.80
2019-06-15T01:11:41.607Z,1000.81
2019-06-15T01:12:41.577Z,1000.82
2019-06-15T01:13:41.561Z,1000.84
2019-06-15T01:14:41.543Z,1000.80
2019-06-15T01:15:41.528Z,1000.84
2019-06-15T01:16:41.513Z,1000.79
2019-06-15T01:17:41.510Z,1000.77
2019-06-15T01:18:41.482Z,1000.76
2019-06-15T01:19:41.466Z,1000.75
2019-06-15T01:20:41.453Z,1000.75
2019-06-15T01:21:41.432Z,1000.77
2019-06-15T01:22:41.432Z,1000.78
2019-06-15T01:23:41.404Z,1000.80
2019-06-15T01:24:41.387Z,1000.76
2019-06-15T01:25:41.371Z,1000.75
2019-06-15T01:26:41.357Z,1000.78
2019-06-15T01:27:41.356Z,1000.74
2019-06-15T01:28:41.326Z,1000.67
2019-06-15T01:29:41.311Z,1000.70
2019-06-15T01:30:41.294Z,1000.71
2019-06-15T01:31:41.280Z,1000.69
2019-06-15T01:32:41.283Z,1000.74
2019-06-15T01:33:41.250Z,1000.68
2019-06-15T01:34:41.233Z,1000.71
2019-06-15T01:35:41.217Z,1000.71
2019-06-15T01:36:41.204Z,1000.71
2019-06-15T01:37:41.186Z,1000.65
2019-06-15T01:38:41.185Z,1000.64
2019-06-15T01:39:41.155Z,1000.60
2019-06-15T01:40:41.137Z,1000.56
2019-06-15T01:41:41.127Z,1000.49
2019-06-15T01:42:41.108Z,1000.46
2019-06-15T01:43:41.106Z,1000.41
2019-06-15T01:44:41.074Z,1000.39
2019-06-15T01:45:41.061Z,1000.37
2019-06-15T01:46:41.046Z,1000.34
2019-06-15T01:47:41.029Z,1000.33
2019-06-15T01:48:41.028Z,1000.35
2019-06-15T01:49:40.997Z,1000.35
2019-06-15T01:50:40.984Z,1000.39
2019-06-15T01:51:40.968Z,1000.42
2019-06-15T01:52:40.955Z,1000.36
2019-06-15T01:53:40.949Z,1000.33
2019-06-15T01:54:40.920Z,1000.32
2019-06-15T01:55:40.905Z,1000.33
2019-06-15T01:56:40.885Z,1000.35
2019-06-15T01:57:40.873Z,1000.37
2019-06-15T01:58:40.875Z,1000.34
2019-06-15T01:59:40.843Z,1000.32
2019-06-15T02:00:40.827Z,1000.32
2019-06-15T02:01:40.815Z,1000.28
2019-06-15T02:02:40.805Z,1000.23
2019-06-15T02:03:40.780Z,1000.15
2019-06-15T02:04:40.780Z,1000.04
2019-06-15T02:05:40.747Z,999.98
2019-06-15T02:06:40.741Z,999.94
2019-06-15T02:07:40.718Z,999.99
2019-06-15T02:08:40.702Z,1000.10
2019-06-15T02:09:40.715Z,1000.15
2019-06-15T02:10:40.702Z,1000.20
2019-06-15T05:02:43.058Z,1001.54
2019-06-15T05:03:43.026Z,1001.56
2019-06-15T05:04:43.076Z,1001.57
2019-06-15T05:05:42.993Z,1001.66
2019-06-15T05:06:42.972Z,1001.66
2019-06-15T05:07:42.954Z,1001.69
2019-06-15T05:08:42.939Z,1001.66
2019-06-15T05:09:42.943Z,1001.63
2019-06-15T05:10:42.906Z,1001.68
2019-06-15T05:11:42.892Z,1001.67
2019-06-15T05:12:42.873Z,1001.72
2019-06-15T05:13:42.902Z,1001.69
2019-06-15T05:14:42.858Z,1001.72
2019-06-15T05:15:42.827Z,1001.72
2019-06-15T05:16:42.810Z,1001.73
2019-06-15T05:17:46.001Z,1001.71
2019-06-15T05:18:42.791Z,1001.68
2019-06-15T05:19:42.774Z,1001.67
2019-06-15T05:20:42.765Z,1001.64
2019-06-15T05:21:42.733Z,1001.61
2019-06-15T06:20:04.108Z,1001.78
2019-06-15T06:21:04.078Z,1001.75
2019-06-15T06:22:04.060Z,1001.79
2019-06-15T06:23:04.042Z,1001.83
2019-06-15T06:24:04.040Z,1001.84
2019-06-15T06:25:04.006Z,1001.82
2019-06-15T06:26:03.987Z,1001.83
2019-06-15T06:27:03.997Z,1001.84
2019-06-15T06:28:03.953Z,1001.77
2019-06-15T06:29:03.937Z,1001.82
2019-06-15T06:30:03.939Z,1001.87
2019-06-15T06:31:03.913Z,1001.88
2019-06-15T06:32:03.889Z,1001.85
2019-06-15T06:33:03.875Z,1001.93
2019-06-15T06:34:03.862Z,1001.96
2019-06-15T06:35:03.867Z,1002.03
2019-06-15T06:36:06.224Z,1002.03
2019-06-15T06:37:03.816Z,1002.08
2019-06-15T06:38:03.809Z,1002.10
2019-06-15T06:39:03.781Z,1002.08
2019-06-15T06:40:03.766Z,1002.14
2019-06-15T06:41:03.765Z,1002.20
2019-06-15T06:42:03.737Z,1002.19
2019-06-15T06:43:03.730Z,1002.24
2019-06-15T06:44:03.708Z,1002.19
2019-06-15T06:45:03.693Z,1002.29
2019-06-15T06:46:03.694Z,1002.34
2019-06-15T06:47:03.666Z,1002.35
2019-06-15T06:48:03.653Z,1002.43
2019-06-15T06:49:03.640Z,1002.47
2019-06-15T06:50:03.625Z,1002.50
2019-06-15T06:51:03.622Z,1002.58
2019-06-15T06:52:03.592Z,1002.59
2019-06-15T06:53:03.578Z,1002.66
2019-06-15T06:54:03.567Z,1002.65
2019-06-15T06:55:03.557Z,1002.65
2019-06-15T06:56:03.550Z,1002.74
2019-06-15T06:57:03.524Z,1002.77
2019-06-15T06:58:03.506Z,1002.79
2019-06-15T06:59:03.495Z,1002.75
2019-06-15T07:00:03.484Z,1002.78
2019-06-15T07:01:03.486Z,1002.80
2019-06-15T07:02:03.473Z,1002.89
2019-06-15T07:03:03.459Z,1002.81
2019-06-15T07:04:03.422Z,1002.87
2019-06-15T07:05:03.414Z,1002.90
2019-06-15T07:06:03.400Z,1002.87
2019-06-15T07:07:03.401Z,1002.86
2019-06-15T07:08:03.378Z,1002.88
2019-06-15T07:09:03.356Z,1002.88
2019-06-15T07:10:03.344Z,1002.91
2019-06-15T07:11:03.328Z,1002.93
2019-06-15T07:12:03.362Z,1002.92
2019-06-15T07:13:03.298Z,1002.90
2019-06-15T07:14:03.284Z,1002.91
2019-06-15T07:15:04.855Z,1002.95
2019-06-15T07:16:03.258Z,1002.97
2019-06-15T07:17:03.259Z,1002.94
2019-06-15T07:18:03.233Z,1002.99
2019-06-15T07:19:03.220Z,1002.99
2019-06-15T07:20:03.218Z,1003.00
2019-06-15T07:21:03.196Z,1003.00
2019-06-15T07:22:03.194Z,1003.00
2019-06-15T07:23:03.204Z,1002.98
2019-06-15T07:24:03.285Z,1002.94
2019-06-15T07:25:03.134Z,1002.97
2019-06-15T07:26:03.121Z,1002.94
2019-06-15T07:27:03.122Z,1002.91
2019-06-15T07:28:07.994Z,1002.92
2019-06-15T07:29:03.084Z,1002.93
2019-06-15T07:30:03.068Z,1002.91
2019-06-15T07:31:03.051Z,1002.95
2019-06-15T07:32:03.065Z,1002.87
2019-06-15T07:33:03.025Z,1002.90
2019-06-15T07:34:03.015Z,1002.90
2019-06-15T07:35:03.024Z,1002.91
2019-06-15T07:36:03.042Z,1003.00
2019-06-15T07:37:03.022Z,1002.94
2019-06-15T07:38:02.969Z,1002.92
2019-06-15T07:39:02.947Z,1002.90
2019-06-15T07:40:02.933Z,1002.92
2019-06-15T07:41:02.919Z,1002.86
2019-06-15T07:42:02.907Z,1002.80
2019-06-15T07:43:02.908Z,1002.82
2019-06-15T07:50:44.357Z,1002.91
2019-06-15T07:51:44.321Z,1002.93
2019-06-15T07:52:44.326Z,1002.96
2019-06-15T07:53:44.294Z,1002.98
2019-06-15T07:54:44.280Z,1002.90
2019-06-15T07:55:44.269Z,1002.90
2019-06-15T07:56:44.255Z,1002.94
2019-06-15T07:57:44.275Z,1002.99
2019-06-15T07:58:44.226Z,1002.83
2019-06-15T07:59:44.217Z,1002.81
2019-06-15T08:00:44.204Z,1002.95
2019-06-15T08:01:44.191Z,1002.86
2019-06-15T08:02:44.175Z,1002.84
2019-06-15T08:03:44.179Z,1002.85
2019-06-15T08:04:44.153Z,1002.82
2019-06-15T08:05:44.147Z,1002.80
2019-06-15T08:06:44.134Z,1002.86
2019-06-15T08:07:44.119Z,1002.91
2019-06-15T08:08:44.128Z,1002.92
2019-06-15T08:09:44.107Z,1002.98
2019-06-15T08:10:44.093Z,1003.03
2019-06-15T08:11:45.888Z,1003.05
2019-06-15T08:12:44.058Z,1003.05
2019-06-15T08:13:44.447Z,1003.06
2019-06-15T08:14:44.034Z,1003.07
2019-06-15T08:15:44.026Z,1003.03
2019-06-15T08:16:44.023Z,1003.11
2019-06-15T08:17:45.662Z,1003.09
2019-06-15T08:18:44.015Z,1003.12
2019-06-15T08:19:43.975Z,1003.11
2019-06-15T08:20:43.962Z,1003.16
2019-06-15T08:21:43.951Z,1003.14
2019-06-15T08:22:43.943Z,1003.18
2019-06-15T08:23:43.930Z,1003.19
2019-06-15T08:24:43.929Z,1003.15
2019-06-15T08:25:43.906Z,1003.21
2019-06-15T08:26:43.890Z,1003.20
2019-06-15T08:27:43.878Z,1003.15
2019-06-15T08:28:43.897Z,1003.18
2019-06-15T08:29:43.872Z,1003.21
2019-06-15T08:30:43.843Z,1003.26
2019-06-15T08:31:43.830Z,1003.27
2019-06-15T08:32:43.824Z,1003.28
2019-06-15T08:33:43.845Z,1003.26
2019-06-15T08:34:43.832Z,1003.29
2019-06-15T08:35:43.791Z,1003.35
2019-06-15T08:36:51.543Z,1003.34
2019-06-15T08:37:43.813Z,1003.36
2019-06-15T08:38:43.746Z,1003.39
2019-06-15T08:39:43.746Z,1003.33
2019-06-15T08:40:43.721Z,1003.33
2019-06-15T08:41:43.724Z,1003.32
2019-06-15T08:42:43.699Z,1003.35
2019-06-15T08:43:43.681Z,1003.39
2019-06-15T08:44:43.698Z,1003.46
2019-06-15T08:45:43.658Z,1003.38
2019-06-15T08:46:43.646Z,1003.44
2019-06-15T08:53:22.430Z,1003.73
2019-06-15T08:54:22.404Z,1003.74
2019-06-15T08:55:22.403Z,1003.80
2019-06-15T08:56:22.373Z,1003.86
2019-06-15T08:57:22.359Z,1003.89
2019-06-15T08:58:22.346Z,1003.88
2019-06-15T08:59:22.333Z,1003.85
2019-06-15T09:00:22.346Z,1003.81
2019-06-15T09:01:22.307Z,1003.82
2019-06-15T09:02:22.293Z,1003.87
2019-06-15T09:03:22.276Z,1003.86
2019-06-15T09:04:22.268Z,1003.88
2019-06-15T09:18:47.156Z,1004.04
2019-06-15T09:19:47.117Z,1004.08
2019-06-15T09:20:47.121Z,1004.06
2019-06-15T09:21:47.095Z,1004.10
2019-06-15T09:22:47.072Z,1004.23
2019-06-15T09:23:47.058Z,1004.18
2019-06-15T09:24:47.044Z,1004.16
2019-06-15T09:25:47.029Z,1004.18
2019-06-15T09:26:47.026Z,1004.19
2019-06-15T09:27:47.002Z,1004.23
2019-06-15T09:28:46.983Z,1004.17
2019-06-15T09:29:46.972Z,1004.19
2019-06-15T09:37:51.066Z,1004.42
2019-06-15T09:38:51.034Z,1004.26
2019-06-15T09:39:51.018Z,1004.44
2019-06-15T09:40:51.005Z,1004.39
2019-06-15T09:41:51.004Z,1004.42
2019-06-15T09:42:50.975Z,1004.41
2019-06-15T09:54:14.994Z,1004.68
2019-06-15T09:55:14.964Z,1004.77
2019-06-15T09:56:14.968Z,1004.71
2019-06-15T09:57:14.948Z,1004.66
2019-06-15T09:58:14.923Z,1004.61
2019-06-15T09:59:25.720Z,1004.63
2019-06-15T10:00:14.892Z,1004.66
2019-06-15T10:01:14.880Z,1004.61
2019-06-15T10:02:14.878Z,1004.67
2019-06-15T10:03:14.850Z,1004.66
2019-06-15T10:04:14.853Z,1004.78
2019-06-15T10:05:14.822Z,1004.76
2019-06-15T10:06:14.834Z,1004.77
2019-06-15T10:07:15.039Z,1004.71
2019-06-15T10:13:52.381Z,1004.86
2019-06-15T10:14:52.352Z,1004.96
2019-06-15T10:15:52.356Z,1004.91
2019-06-15T10:16:52.342Z,1004.86
2019-06-15T10:17:52.309Z,1004.85
2019-06-15T10:18:52.378Z,1004.90
2019-06-15T10:19:52.280Z,1004.92
2019-06-15T10:20:52.274Z,1005.08
2019-06-15T10:21:52.271Z,1004.98
2019-06-15T10:22:52.243Z,1005.17
2019-06-15T10:23:52.230Z,1005.15
2019-06-15T10:24:52.217Z,1005.06
2019-06-15T10:25:54.176Z,1005.12
2019-06-15T10:26:52.216Z,1005.20
2019-06-15T10:27:52.180Z,1005.24
2019-06-15T10:28:52.168Z,1005.08
2019-06-15T10:29:52.158Z,1005.20
2019-06-15T10:30:52.142Z,1005.31
2019-06-15T10:31:52.153Z,1005.44
2019-06-15T10:32:52.117Z,1005.43
2019-06-15T10:33:52.114Z,1005.31
2019-06-15T10:34:52.102Z,1005.28
2019-06-15T10:35:52.086Z,1005.30
2019-06-15T10:36:52.083Z,1005.27
2019-06-15T10:37:52.054Z,1005.34
2019-06-15T10:38:52.042Z,1005.30
2019-06-15T10:39:52.032Z,1005.26
2019-06-15T10:40:52.017Z,1005.27
2019-06-15T10:41:52.018Z,1005.37
2019-06-15T10:42:51.993Z,1005.38
2019-06-15T10:43:51.983Z,1005.38
2019-06-15T10:44:52.037Z,1005.36
2019-06-15T10:45:51.973Z,1005.35
2019-06-15T10:46:51.960Z,1005.40
2019-06-15T10:47:51.937Z,1005.38
2019-06-15T10:48:51.920Z,1005.41
2019-06-15T10:49:51.914Z,1005.44
2019-06-15T10:50:51.897Z,1005.36
2019-06-15T10:51:51.907Z,1005.48
2019-06-15T10:52:51.895Z,1005.51
2019-06-15T10:53:51.866Z,1005.50
2019-06-15T10:54:51.848Z,1005.61
2019-06-15T10:55:51.836Z,1005.60
2019-06-15T10:56:51.820Z,1005.64
2019-06-15T10:57:51.813Z,1005.64
2019-06-15T10:58:51.810Z,1005.69
2019-06-15T10:59:57.405Z,1005.68
2019-06-15T11:00:51.771Z,1005.63
2019-06-15T11:01:51.760Z,1005.62
2019-06-15T11:02:51.762Z,1005.63
2019-06-15T11:03:51.757Z,1005.62
2019-06-15T11:04:51.727Z,1005.62
2019-06-15T11:05:54.734Z,1005.55
2019-06-15T11:06:51.704Z,1005.57
2019-06-15T11:07:51.691Z,1005.58
2019-06-15T11:08:51.697Z,1005.59
2019-06-15T11:09:51.664Z,1005.63
2019-06-15T11:10:51.658Z,1005.67
2019-06-15T11:11:51.645Z,1005.62
2019-06-15T11:12:51.652Z,1005.70
2019-06-15T11:13:51.621Z,1005.72
2019-06-15T11:14:51.653Z,1005.71
2019-06-15T11:15:51.596Z,1005.77
2019-06-15T11:16:51.588Z,1005.79
2019-06-15T11:17:51.595Z,1005.69
2019-06-15T11:18:51.560Z,1005.70
2019-06-15T11:19:51.554Z,1005.70
2019-06-15T11:20:51.541Z,1005.73
2019-06-15T11:21:51.552Z,1005.80
2019-06-15T11:22:51.545Z,1005.71
2019-06-15T11:23:51.529Z,1005.70
2019-06-15T11:24:51.494Z,1005.68
2019-06-15T11:25:51.481Z,1005.70
2019-06-15T11:26:51.470Z,1005.72
2019-06-15T11:27:51.525Z,1005.73
2019-06-15T11:28:51.445Z,1005.80
2019-06-15T11:29:51.477Z,1005.76
2019-06-15T11:30:51.512Z,1005.83
2019-06-15T11:31:51.413Z,1005.82
2019-06-15T11:32:51.419Z,1005.79
2019-06-15T11:33:51.397Z,1005.81
2019-06-15T11:34:51.382Z,1005.87
2019-06-15T11:35:51.371Z,1005.89
2019-06-15T11:36:51.354Z,1005.86
2019-06-15T11:37:51.355Z,1005.91
2019-06-15T11:38:51.374Z,1005.88
2019-06-15T11:39:51.352Z,1005.84
2019-06-15T11:40:51.311Z,1005.88
2019-06-15T11:41:51.302Z,1005.94
2019-06-15T11:42:51.294Z,1005.95
2019-06-15T11:43:51.276Z,1005.93
2019-06-15T11:44:51.255Z,1005.92
2019-06-15T11:45:51.244Z,1005.92
2019-06-15T11:46:51.230Z,1005.98
2019-06-15T11:47:51.262Z,1006.00
2019-06-15T11:48:51.214Z,1006.01
2019-06-15T11:49:51.199Z,1006.00
2019-06-15T11:50:51.180Z,1006.06
2019-06-15T11:51:51.179Z,1006.09
2019-06-15T11:52:51.171Z,1006.08
2019-06-15T11:53:51.143Z,1006.13
2019-06-15T11:54:51.130Z,1006.10
2019-06-15T11:55:51.119Z,1006.10
2019-06-15T11:56:51.112Z,1006.12
2019-06-15T11:57:51.106Z,1006.12
2019-06-15T11:58:51.081Z,1006.07
2019-06-15T11:59:51.068Z,1006.12
2019-06-15T12:00:51.054Z,1006.13
2019-06-15T12:01:51.045Z,1006.06
2019-06-15T12:02:51.062Z,1006.06
2019-06-15T12:03:51.017Z,1006.11
2019-06-15T12:04:58.434Z,1006.09
2019-06-15T12:05:50.987Z,1006.13
2019-06-15T12:06:50.974Z,1006.11
2019-06-15T12:07:50.971Z,1006.14
2019-06-15T12:08:50.970Z,1006.14
2019-06-15T12:09:50.938Z,1006.19
2019-06-15T12:10:50.925Z,1006.18
2019-06-15T12:11:50.914Z,1006.16
2019-06-15T12:12:50.898Z,1006.16
2019-06-15T12:13:50.909Z,1006.16
2019-06-15T12:14:50.878Z,1006.17
2019-06-15T12:15:50.866Z,1006.15
2019-06-15T12:16:50.857Z,1006.16
2019-06-15T12:17:50.837Z,1006.16
2019-06-15T12:18:50.875Z,1006.09
2019-06-15T12:19:50.813Z,1006.12
2019-06-15T12:20:50.802Z,1006.13
2019-06-15T12:21:50.789Z,1006.16
2019-06-15T12:22:50.776Z,1006.17
2019-06-15T12:23:50.779Z,1006.15
2019-06-15T12:24:50.756Z,1006.13
2019-06-15T12:25:50.742Z,1006.13
2019-06-15T12:26:50.727Z,1006.15
2019-06-15T12:27:50.720Z,1006.17
2019-06-15T12:28:50.750Z,1006.22
2019-06-15T12:29:50.689Z,1006.24
2019-06-15T12:30:50.679Z,1006.27
2019-06-15T12:31:50.668Z,1006.25
2019-06-15T12:32:50.654Z,1006.28
2019-06-15T12:33:50.655Z,1006.28
2019-06-15T12:34:50.629Z,1006.24
2019-06-15T12:35:50.620Z,1006.26
2019-06-15T12:36:50.609Z,1006.22
2019-06-15T12:37:50.592Z,1006.20
2019-06-15T12:38:50.626Z,1006.19
2019-06-15T12:39:50.575Z,1006.14
2019-06-15T12:40:50.566Z,1006.11
2019-06-15T12:41:50.549Z,1006.20
2019-06-15T12:42:50.540Z,1006.14
2019-06-15T12:43:50.527Z,1006.20
2019-06-15T12:44:50.526Z,1006.12
2019-06-15T12:45:50.501Z,1006.28
2019-06-15T12:46:50.488Z,1006.28
2019-06-15T12:47:50.477Z,1006.29
2019-06-15T12:48:50.465Z,1006.23
2019-06-15T12:49:50.518Z,1006.30
2019-06-15T12:50:50.449Z,1006.32
2019-06-15T12:51:50.436Z,1006.32
2019-06-15T12:52:50.426Z,1006.29
2019-06-15T12:53:50.411Z,1006.29
2019-06-15T12:54:50.413Z,1006.24
2019-06-15T12:55:50.393Z,1006.28
2019-06-15T12:56:50.380Z,1006.03
2019-06-15T12:57:52.912Z,1006.27
2019-06-15T12:58:50.364Z,1006.24
2019-06-15T12:59:50.369Z,1006.27
2019-06-15T13:01:02.382Z,1006.26
2019-06-15T13:01:50.331Z,1006.18
2019-06-15T13:02:50.321Z,1006.16
2019-06-15T13:03:50.314Z,1006.21
2019-06-15T13:04:50.303Z,1006.19
2019-06-15T13:05:50.320Z,1006.18
2019-06-15T13:06:50.282Z,1006.17
2019-06-15T13:07:50.276Z,1006.19
2019-06-15T13:08:50.266Z,1006.20
2019-06-15T13:09:50.259Z,1006.18
2019-06-15T13:10:50.258Z,1006.22
2019-06-15T13:11:50.236Z,1006.11
2019-06-15T13:12:50.229Z,1005.97
2019-06-15T13:13:50.219Z,1006.00
2019-06-15T13:14:50.285Z,1006.24
2019-06-15T13:15:50.217Z,1006.20
2019-06-15T13:16:50.201Z,1006.21
2019-06-15T13:17:50.191Z,1006.18
2019-06-15T13:18:50.176Z,1005.90
2019-06-15T13:19:50.166Z,1005.87
2019-06-15T13:20:50.171Z,1005.88
2019-06-15T13:21:50.151Z,1005.90
2019-06-15T13:22:50.150Z,1005.90
2019-06-15T13:23:50.131Z,1005.90
2019-06-15T13:24:50.128Z,1005.92
2019-06-15T13:25:50.128Z,1005.90
2019-06-15T13:26:50.105Z,1005.90
2019-06-15T13:27:50.095Z,1005.86
2019-06-15T13:28:51.247Z,1005.87
2019-06-15T13:29:50.077Z,1005.90
2019-06-15T13:30:50.081Z,1005.92
2019-06-15T13:31:50.057Z,1005.94
2019-06-15T13:32:50.045Z,1006.04
2019-06-15T13:33:50.038Z,1006.07
2019-06-15T13:34:50.027Z,1006.04
2019-06-15T13:35:50.030Z,1006.03
2019-06-15T13:36:50.005Z,1006.07
2019-06-15T13:37:50.003Z,1006.08
2019-06-15T13:38:49.987Z,1006.18
2019-06-15T13:39:49.975Z,1006.11
2019-06-15T13:40:49.992Z,1006.12
2019-06-15T13:41:49.949Z,1006.14
2019-06-15T13:42:49.940Z,1006.20
2019-06-15T13:43:49.930Z,1006.21
2019-06-15T13:44:49.915Z,1006.27
2019-06-15T13:45:49.918Z,1006.27
2019-06-15T13:46:49.894Z,1006.57
2019-06-15T13:47:49.888Z,1006.56
2019-06-15T13:48:49.869Z,1006.33
2019-06-15T13:49:49.859Z,1006.52
2019-06-15T13:50:49.858Z,1006.68
2019-06-15T13:51:49.856Z,1006.71
2019-06-15T13:52:49.823Z,1006.67
2019-06-15T13:53:49.810Z,1006.32
2019-06-15T13:54:49.806Z,1006.25
2019-06-15T13:55:49.804Z,1006.28
2019-06-15T13:56:49.775Z,1006.30
2019-06-15T13:57:49.769Z,1006.29
2019-06-15T13:58:49.771Z,1006.27
2019-06-15T13:59:49.749Z,1006.34
2019-06-15T14:00:49.751Z,1006.31
2019-06-15T14:01:49.726Z,1006.30
2019-06-15T14:02:49.720Z,1006.34
2019-06-15T14:03:49.706Z,1006.28
2019-06-15T14:04:49.697Z,1006.29
2019-06-15T14:05:49.718Z,1006.27
2019-06-15T14:06:49.675Z,1006.30
2019-06-15T14:07:49.671Z,1006.33
2019-06-15T14:08:49.650Z,1006.36
2019-06-15T14:09:49.648Z,1006.32
2019-06-15T14:10:49.632Z,1006.34
2019-06-15T14:11:49.635Z,1006.34
2019-06-15T14:12:49.606Z,1006.35
2019-06-15T14:13:49.601Z,1006.56
2019-06-15T14:14:49.584Z,1006.39
2019-06-15T14:15:49.573Z,1006.64
2019-06-15T14:16:49.577Z,1006.66
2019-06-15T14:17:49.549Z,1006.55
2019-06-15T14:18:49.539Z,1006.42
2019-06-15T14:19:49.530Z,1006.41
2019-06-15T14:20:49.518Z,1006.62
2019-06-15T14:21:49.529Z,1006.66
2019-06-15T14:22:49.499Z,1006.57
2019-06-15T14:23:49.490Z,1006.57
2019-06-15T14:24:49.479Z,1006.75
2019-06-15T14:25:49.473Z,1006.66
2019-06-15T14:26:49.476Z,1006.55
2019-06-15T14:27:49.455Z,1006.49
2019-06-15T14:28:49.466Z,1006.50
2019-06-15T14:29:49.437Z,1006.53
2019-06-15T14:30:49.427Z,1006.54
2019-06-15T14:31:50.636Z,1006.53
2019-06-15T14:32:49.415Z,1006.50
2019-06-15T14:33:49.411Z,1006.57
2019-06-15T14:34:49.396Z,1006.53
2019-06-15T14:35:49.391Z,1006.49
2019-06-15T14:36:49.386Z,1006.29
2019-06-15T14:37:49.392Z,1006.57
2019-06-15T14:38:49.372Z,1006.53
2019-06-15T14:39:49.368Z,1006.53
2019-06-15T14:40:49.362Z,1006.51
2019-06-15T14:41:51.115Z,1006.52
2019-06-15T14:42:49.347Z,1006.53
2019-06-15T14:43:49.342Z,1006.55
2019-06-15T14:44:49.331Z,1006.53
2019-06-15T14:45:58.981Z,1006.60
2019-06-15T14:46:49.337Z,1006.65
2019-06-15T14:47:50.225Z,1006.62
2019-06-15T14:48:49.308Z,1006.62
2019-06-15T14:49:49.304Z,1006.58
2019-06-15T14:50:49.298Z,1006.56
2019-06-15T14:51:51.069Z,1006.59
2019-06-15T14:52:49.297Z,1006.50
2019-06-15T14:53:55.484Z,1006.41
2019-06-15T14:54:49.279Z,1006.44
2019-06-15T14:55:49.275Z,1006.57
2019-06-15T14:56:49.283Z,1006.50
2019-06-15T14:57:49.269Z,1006.44
2019-06-15T14:58:49.263Z,1006.46
2019-06-15T14:59:59.734Z,1006.54
2019-06-15T15:00:49.253Z,1006.58
2019-06-15T15:01:50.529Z,1006.64
2019-06-15T15:02:49.243Z,1006.70
2019-06-15T15:03:49.241Z,1006.66
2019-06-15T15:04:49.237Z,1006.72
2019-06-15T15:05:49.228Z,1006.87
2019-06-15T15:06:49.240Z,1006.83
2019-06-15T15:07:49.220Z,1006.90
2019-06-15T15:08:49.224Z,1007.05
2019-06-15T15:09:50.012Z,1006.99
2019-06-15T15:10:49.213Z,1006.78
2019-06-15T15:11:49.215Z,1006.61
2019-06-15T15:12:49.200Z,1006.54
2019-06-15T15:13:49.193Z,1006.60
2019-06-15T15:14:49.190Z,1006.64
2019-06-15T15:15:49.183Z,1006.65
2019-06-15T15:16:49.196Z,1006.62
2019-06-15T15:17:49.172Z,1006.69
2019-06-15T15:18:49.168Z,1006.79
2019-06-15T15:19:49.163Z,1006.78
2019-06-15T15:20:49.174Z,1006.80
2019-06-15T15:21:49.150Z,1006.85
2019-06-15T15:22:49.160Z,1006.78
2019-06-15T15:23:49.136Z,1006.72
2019-06-15T15:24:49.130Z,1006.62
2019-06-15T15:25:49.127Z,1006.61
2019-06-15T15:26:49.153Z,1006.51
2019-06-15T15:27:49.132Z,1006.52
2019-06-15T15:28:49.124Z,1006.71
2019-06-15T15:29:49.101Z,1006.59
2019-06-15T15:30:49.094Z,1006.73
2019-06-15T15:31:49.089Z,1006.94
2019-06-15T15:32:49.095Z,1006.89
2019-06-15T15:33:49.081Z,1006.98
2019-06-15T15:34:49.068Z,1007.00
2019-06-15T15:35:49.062Z,1006.99
2019-06-15T15:36:49.060Z,1007.37
2019-06-15T15:37:49.061Z,1007.45
2019-06-15T15:38:49.042Z,1007.10
2019-06-15T15:39:49.037Z,1007.35
2019-06-15T15:40:49.028Z,1007.11
2019-06-15T15:41:49.021Z,1006.78
2019-06-15T15:42:49.029Z,1007.21
2019-06-15T15:43:49.010Z,1006.43
2019-06-15T15:44:49.001Z,1006.41
2019-06-15T15:45:48.995Z,1007.20
2019-06-15T15:46:48.988Z,1007.01
2019-06-15T15:47:49.007Z,1007.16
2019-06-15T15:48:48.976Z,1006.56
2019-06-15T15:49:49.027Z,1006.93
2019-06-15T15:50:49.032Z,1006.90
2019-06-15T15:51:49.082Z,1006.99
2019-06-15T15:52:49.043Z,1006.89
2019-06-15T15:53:49.003Z,1006.88
2019-06-15T15:54:49.053Z,1006.97
2019-06-15T15:55:48.969Z,1006.94
2019-06-15T15:56:49.023Z,1006.87
2019-06-15T15:57:48.917Z,1006.92
2019-06-15T15:58:49.005Z,1006.94
2019-06-15T15:59:48.941Z,1006.88
2019-06-15T16:00:48.938Z,1006.84
2019-06-15T16:01:48.896Z,1006.88
2019-06-15T16:02:52.049Z,1006.89
2019-06-15T16:03:48.983Z,1006.89
2019-06-15T16:04:48.886Z,1006.66
2019-06-15T16:05:48.925Z,1006.81
2019-06-15T16:06:48.979Z,1006.41
2019-06-15T16:07:48.889Z,1006.63
2019-06-15T16:08:49.607Z,1006.63
2019-06-15T16:09:48.994Z,1006.70
2019-06-15T16:10:48.958Z,1006.38
2019-06-15T16:11:48.908Z,1006.54
2019-06-15T16:12:48.919Z,1006.49
2019-06-15T16:13:48.997Z,1006.74
2019-06-15T16:14:48.899Z,1006.79
2019-06-15T16:15:49.040Z,1006.78
2019-06-15T16:16:48.829Z,1006.77
2019-06-15T16:17:48.896Z,1006.77
2019-06-15T16:18:48.909Z,1006.80
2019-06-15T16:19:48.865Z,1006.79
2019-06-15T16:20:48.939Z,1006.84
2019-06-15T16:21:49.746Z,1006.82
2019-06-15T16:22:48.917Z,1006.83
2019-06-15T16:23:48.887Z,1006.86
2019-06-15T16:24:48.793Z,1006.83
2019-06-15T16:25:48.903Z,1006.84
2019-06-15T16:26:48.875Z,1006.86
2019-06-15T16:27:48.910Z,1006.82
2019-06-15T16:28:48.901Z,1006.88
2019-06-15T16:29:48.920Z,1006.89
2019-06-15T16:31:04.770Z,1006.89
2019-06-15T16:31:48.833Z,1006.65
2019-06-15T16:33:00.389Z,1006.56
2019-06-15T16:33:48.778Z,1006.85
2019-06-15T16:34:48.799Z,1006.84
2019-06-15T16:35:48.791Z,1006.85
2019-06-15T16:36:48.784Z,1006.79
2019-06-15T16:37:48.873Z,1006.74
2019-06-15T16:38:48.742Z,1006.76
2019-06-15T16:39:48.776Z,1006.77
2019-06-15T16:40:48.745Z,1006.74
2019-06-15T16:41:48.735Z,1006.71
2019-06-15T16:42:48.741Z,1006.74